createdAt,value
2022-08-19T00:00:59.723Z,14.57
2022-08-19T00:03:26.153Z,14.85
2022-08-19T00:05:52.580Z,14.25
2022-08-19T00:08:19.008Z,15.57
2022-08-19T00:10:46.835Z,15.82
2022-08-19T00:13:13.280Z,15.32
2022-08-19T00:15:40.087Z,16.42
2022-08-19T00:18:06.518Z,16.60
2022-08-19T00:20:32.965Z,16.02
2022-08-19T00:22:59.478Z,16.50
2022-08-19T00:25:30.578Z,17.10
2022-08-19T00:27:57.159Z,16.70
2022-08-19T00:30:23.606Z,17.45
2022-08-19T00:32:50.042Z,17.98
2022-08-19T00:35:17.547Z,16.90
2022-08-19T00:37:44.181Z,16.50
2022-08-19T00:40:12.326Z,16.90
2022-08-19T00:42:39.523Z,16.95
2022-08-19T00:45:16.108Z,17.65
2022-08-19T00:47:42.567Z,16.67
2022-08-19T00:50:09.958Z,17.52
2022-08-19T00:52:46.174Z,18.25
2022-08-19T00:55:20.513Z,17.92
2022-08-19T00:57:51.345Z,18.58
2022-08-19T01:00:20.251Z,16.75
2022-08-19T01:02:46.927Z,17.90
2022-08-19T01:05:16.238Z,17.38
2022-08-19T01:07:43.161Z,17.45
2022-08-19T01:10:13.302Z,16.85
2022-08-19T01:12:40.250Z,16.40
2022-08-19T01:15:08.716Z,17.20
2022-08-19T01:17:37.408Z,18.38
2022-08-19T01:20:05.317Z,17.65
2022-08-19T01:22:35.545Z,18.08
2022-08-19T01:25:02.475Z,17.40
2022-08-19T01:27:42.904Z,16.95
2022-08-19T01:30:13.930Z,16.90
2022-08-19T01:32:40.446Z,17.77
2022-08-19T01:35:07.078Z,20.13
2022-08-19T01:37:44.718Z,19.63
2022-08-19T01:40:11.585Z,18.02
2022-08-19T01:42:38.047Z,17.67
2022-08-19T01:45:05.965Z,19.05
2022-08-19T01:47:32.415Z,17.30
2022-08-19T01:49:59.408Z,17.77
2022-08-19T01:52:25.834Z,17.85
2022-08-19T01:54:52.279Z,16.73
2022-08-19T01:57:18.727Z,16.70
2022-08-19T01:59:45.994Z,15.77
2022-08-19T02:02:12.466Z,15.73
2022-08-19T02:04:39.466Z,16.13
2022-08-19T02:07:08.873Z,17.20
2022-08-19T02:09:35.881Z,16.50
2022-08-19T02:12:02.389Z,16.40
2022-08-19T02:14:28.833Z,16.00
2022-08-19T02:16:55.276Z,17.05
2022-08-19T02:19:21.755Z,15.48
2022-08-19T02:21:48.439Z,17.15
2022-08-19T02:24:14.951Z,17.48
2022-08-19T02:26:41.390Z,17.40
2022-08-19T02:29:07.839Z,16.60
2022-08-19T02:31:34.302Z,16.05
2022-08-19T02:34:01.342Z,15.77
2022-08-19T02:36:28.684Z,15.85
2022-08-19T02:38:56.764Z,16.15
2022-08-19T02:41:27.277Z,15.77
2022-08-19T02:44:28.783Z,17.00
2022-08-19T02:46:41.689Z,17.23
2022-08-19T02:49:08.864Z,17.13
2022-08-19T02:51:38.118Z,17.48
2022-08-19T02:54:05.846Z,19.15
2022-08-19T02:56:32.361Z,17.98
2022-08-19T02:58:59.351Z,17.52
2022-08-19T03:01:31.464Z,18.23
2022-08-19T03:04:00.198Z,18.35
2022-08-19T03:06:27.624Z,21.20
2022-08-19T03:08:54.666Z,19.50
2022-08-19T03:11:25.147Z,18.48
2022-08-19T03:13:51.846Z,23.15
2022-08-19T03:16:19.584Z,19.15
2022-08-19T03:18:46.531Z,20.45
2022-08-19T03:21:27.574Z,19.48
2022-08-19T03:24:06.814Z,20.77
2022-08-19T03:26:35.030Z,19.08
2022-08-19T03:29:05.823Z,19.52
2022-08-19T03:31:44.191Z,19.33
2022-08-19T03:34:20.559Z,20.80
2022-08-19T03:36:47.435Z,19.83
2022-08-19T03:39:14.707Z,21.60
2022-08-19T03:41:45.535Z,18.98
2022-08-19T03:44:16.802Z,20.75
2022-08-19T03:46:44.880Z,19.42
2022-08-19T03:49:11.379Z,19.92
2022-08-19T03:51:42.366Z,20.52
2022-08-19T03:54:13.744Z,20.27
2022-08-19T03:56:41.370Z,20.10
2022-08-19T03:59:11.985Z,19.83
2022-08-19T04:01:38.559Z,20.02
2022-08-19T04:04:05.344Z,20.98
2022-08-19T04:06:34.933Z,21.58
2022-08-19T04:09:03.987Z,20.67
2022-08-19T04:11:43.782Z,20.42
2022-08-19T04:14:19.372Z,22.40
2022-08-19T04:16:47.291Z,18.67
2022-08-19T04:19:16.131Z,21.92
2022-08-19T04:21:48.098Z,20.30
2022-08-19T04:24:14.704Z,20.85
2022-08-19T04:26:41.877Z,18.65
2022-08-19T04:29:12.833Z,20.10
2022-08-19T04:31:40.439Z,19.85
2022-08-19T04:34:08.926Z,20.85
2022-08-19T04:36:37.181Z,19.20
2022-08-19T04:39:06.571Z,19.27
2022-08-19T04:41:52.329Z,19.45
2022-08-19T04:44:19.078Z,19.17
2022-08-19T04:46:51.770Z,18.85
2022-08-19T04:49:20.091Z,18.40
2022-08-19T04:51:48.620Z,17.02
2022-08-19T04:54:25.870Z,18.17
2022-08-19T04:57:02.615Z,17.33
2022-08-19T04:59:29.257Z,17.27
2022-08-19T05:01:55.733Z,18.75
2022-08-19T05:04:22.196Z,19.90
2022-08-19T05:06:49.707Z,17.73
2022-08-19T05:09:17.165Z,17.50
2022-08-19T05:11:44.687Z,15.65
2022-08-19T05:14:13.871Z,19.17
2022-08-19T05:16:41.211Z,16.25
2022-08-19T05:19:26.344Z,16.15
2022-08-19T05:22:11.282Z,15.82
2022-08-19T05:24:51.293Z,15.70
2022-08-19T05:27:24.416Z,16.02
2022-08-19T05:29:50.856Z,16.92
2022-08-19T05:32:17.357Z,17.08
2022-08-19T05:34:43.787Z,14.80
2022-08-19T05:37:10.267Z,15.20
2022-08-19T05:39:38.071Z,14.57
2022-08-19T05:42:08.004Z,15.43
2022-08-19T05:44:38.067Z,15.73
2022-08-19T05:47:07.185Z,17.55
2022-08-19T05:49:34.181Z,15.45
2022-08-19T05:52:06.521Z,15.18
2022-08-19T05:54:33.184Z,17.25
2022-08-19T05:56:59.763Z,14.55
2022-08-19T05:59:26.200Z,18.05
2022-08-19T06:01:55.192Z,15.27
2022-08-19T06:04:21.710Z,16.45
2022-08-19T06:06:55.360Z,16.85
2022-08-19T06:09:23.149Z,17.10
2022-08-19T06:12:00.862Z,16.23
2022-08-19T06:14:30.018Z,16.23
2022-08-19T06:16:57.503Z,16.15
2022-08-19T06:19:25.232Z,17.05
2022-08-19T06:21:52.622Z,15.35
2022-08-19T06:24:23.966Z,16.50
2022-08-19T06:26:56.715Z,13.98
2022-08-19T06:29:25.846Z,15.45
2022-08-19T06:31:54.745Z,14.15
2022-08-19T06:34:21.562Z,15.23
2022-08-19T06:36:49.877Z,15.13
2022-08-19T06:39:25.153Z,14.27
2022-08-19T06:41:56.832Z,15.40
2022-08-19T06:44:29.188Z,17.10
2022-08-19T06:46:58.255Z,16.00
2022-08-19T06:49:25.998Z,16.17
2022-08-19T06:51:52.503Z,16.80
2022-08-19T06:54:20.256Z,15.20
2022-08-19T06:56:47.566Z,15.98
2022-08-19T06:59:16.594Z,16.75
2022-08-19T07:01:47.536Z,19.75
2022-08-19T07:04:21.566Z,20.55
2022-08-19T07:06:55.108Z,18.65
2022-08-19T07:09:21.889Z,17.83
2022-08-19T07:11:50.227Z,17.77
2022-08-19T07:14:19.459Z,17.27
2022-08-19T07:16:50.516Z,17.55
2022-08-19T07:19:19.194Z,16.33
2022-08-19T07:21:48.892Z,16.92
2022-08-19T07:24:16.565Z,16.35
2022-08-19T07:26:44.081Z,16.88
2022-08-19T07:29:12.025Z,17.20
2022-08-19T07:31:40.631Z,17.92
2022-08-19T07:34:12.369Z,17.63
2022-08-19T07:36:41.549Z,18.80
2022-08-19T07:39:29.572Z,21.05
2022-08-19T07:41:57.233Z,19.92
2022-08-19T07:44:24.130Z,18.83
2022-08-19T07:46:54.345Z,20.42
2022-08-19T07:49:21.423Z,21.70
2022-08-19T07:51:51.084Z,20.92
2022-08-19T07:54:18.336Z,20.10
2022-08-19T07:56:44.797Z,19.25
2022-08-19T07:59:11.365Z,19.50
2022-08-19T08:01:41.788Z,19.85
2022-08-19T08:04:27.190Z,19.65
2022-08-19T08:07:12.686Z,18.35
2022-08-19T08:09:42.682Z,18.52
2022-08-19T08:12:33.567Z,18.08
2022-08-19T08:15:05.395Z,17.75
2022-08-19T08:17:48.503Z,19.10
2022-08-19T08:20:17.568Z,17.15
2022-08-19T08:23:04.499Z,19.55
2022-08-19T08:25:32.568Z,16.08
2022-08-19T08:28:01.324Z,19.13
2022-08-19T08:30:31.276Z,16.17
2022-08-19T08:32:59.572Z,17.05
2022-08-19T08:35:26.038Z,15.95
2022-08-19T08:37:54.593Z,16.58
2022-08-19T08:40:40.027Z,14.13
2022-08-19T08:43:11.232Z,14.32
2022-08-19T08:45:44.098Z,14.98
2022-08-19T08:48:24.346Z,12.43
2022-08-19T08:50:53.526Z,11.23
2022-08-19T08:53:27.470Z,10.30
2022-08-19T08:55:56.835Z,11.75
2022-08-19T08:58:54.563Z,12.02
2022-08-19T09:01:21.609Z,11.68
2022-08-19T09:03:48.524Z,12.18
2022-08-19T09:06:37.798Z,11.48
2022-08-19T09:09:33.683Z,12.00
2022-08-19T09:12:15.337Z,11.55
2022-08-19T09:14:52.496Z,11.77
2022-08-19T09:17:28.382Z,12.00
2022-08-19T09:20:16.608Z,12.35
2022-08-19T09:22:46.395Z,11.73
2022-08-19T09:25:26.702Z,12.50
2022-08-19T09:27:55.176Z,13.73
2022-08-19T09:30:31.514Z,12.32
2022-08-19T09:32:58.519Z,11.50
2022-08-19T09:35:28.333Z,11.55
2022-08-19T09:37:55.119Z,11.27
2022-08-19T09:40:24.915Z,11.93
2022-08-19T09:42:52.647Z,13.85
2022-08-19T09:45:24.080Z,10.95
2022-08-19T09:47:52.206Z,11.73
2022-08-19T09:50:21.102Z,12.00
2022-08-19T09:52:55.596Z,11.32
2022-08-19T09:55:31.784Z,10.27
2022-08-19T09:58:03.292Z,12.73
2022-08-19T10:00:31.616Z,12.18
2022-08-19T10:02:58.119Z,11.63
2022-08-19T10:05:43.095Z,10.48
2022-08-19T10:08:13.748Z,11.82
2022-08-19T10:10:46.755Z,11.38
2022-08-19T10:13:15.834Z,16.88
2022-08-19T10:15:45.097Z,12.05
2022-08-19T10:18:14.267Z,13.15
2022-08-19T10:20:42.612Z,11.65
2022-08-19T10:23:09.798Z,12.23
2022-08-19T10:25:36.254Z,12.65
2022-08-19T10:28:05.247Z,12.90
2022-08-19T10:30:37.227Z,18.55
2022-08-19T10:33:08.580Z,10.95
2022-08-19T10:35:42.697Z,11.70
2022-08-19T10:38:30.604Z,11.75
2022-08-19T10:40:58.355Z,12.88
2022-08-19T10:43:25.879Z,11.60
2022-08-19T10:46:00.231Z,12.55
2022-08-19T10:48:26.707Z,10.57
2022-08-19T10:51:12.504Z,10.68
2022-08-19T10:53:49.499Z,11.60
2022-08-19T10:56:34.626Z,10.90
2022-08-19T10:59:02.057Z,11.35
2022-08-19T11:01:30.777Z,11.50
2022-08-19T11:03:58.270Z,12.00
2022-08-19T11:06:28.018Z,12.30
2022-08-19T11:08:55.511Z,12.43
2022-08-19T11:11:22.489Z,12.52
2022-08-19T11:13:50.754Z,11.10
2022-08-19T11:16:23.295Z,10.85
2022-08-19T11:18:52.880Z,11.05
2022-08-19T11:21:20.361Z,12.32
2022-08-19T11:23:48.309Z,9.65
2022-08-19T11:26:15.737Z,12.30
2022-08-19T11:28:42.478Z,10.40
2022-08-19T11:31:18.398Z,10.88
2022-08-19T11:33:47.238Z,11.68
2022-08-19T11:36:15.051Z,11.38
2022-08-19T11:38:41.780Z,9.75
2022-08-19T11:41:08.382Z,10.93
2022-08-19T11:43:37.447Z,10.30
2022-08-19T11:46:09.087Z,8.00
2022-08-19T11:48:35.973Z,10.52
2022-08-19T11:51:07.132Z,8.23
2022-08-19T11:53:34.212Z,7.20
2022-08-19T11:56:01.727Z,7.93
2022-08-19T11:58:28.241Z,10.27
2022-08-19T12:00:54.687Z,9.32
2022-08-19T12:03:21.135Z,8.55
2022-08-19T12:05:47.826Z,8.38
2022-08-19T12:08:14.787Z,8.95
2022-08-19T12:10:43.059Z,8.38
2022-08-19T12:13:10.475Z,9.60
2022-08-19T12:15:41.780Z,8.63
2022-08-19T12:18:09.770Z,7.60
2022-08-19T12:20:37.539Z,8.40
2022-08-19T12:23:05.142Z,8.68
2022-08-19T12:25:32.603Z,7.45
2022-08-19T12:27:59.479Z,8.77
2022-08-19T12:30:26.338Z,8.23
2022-08-19T12:32:52.825Z,8.25
2022-08-19T12:35:21.029Z,7.70
2022-08-19T12:37:56.772Z,8.52
2022-08-19T12:40:24.257Z,7.38
2022-08-19T12:42:53.004Z,9.20
2022-08-19T12:45:20.041Z,8.27
2022-08-19T12:47:47.737Z,9.30
2022-08-19T12:50:15.961Z,7.20
2022-08-19T12:52:43.221Z,8.07
2022-08-19T12:55:12.430Z,8.50
2022-08-19T12:57:39.942Z,6.32
2022-08-19T13:00:16.333Z,6.78
2022-08-19T13:02:46.454Z,6.60
2022-08-19T13:05:27.248Z,7.38
2022-08-19T13:07:58.199Z,6.60
2022-08-19T13:10:28.743Z,6.70
2022-08-19T13:12:55.870Z,8.02
2022-08-19T13:15:24.472Z,7.88
2022-08-19T13:17:52.881Z,7.35
2022-08-19T13:20:21.123Z,6.97
2022-08-19T13:22:48.741Z,7.20
2022-08-19T13:25:18.436Z,6.78
2022-08-19T13:27:45.041Z,6.32
2022-08-19T13:30:33.260Z,7.28
2022-08-19T13:33:11.945Z,7.82
2022-08-19T13:35:55.995Z,7.22
2022-08-19T13:38:23.591Z,6.95
2022-08-19T13:40:52.936Z,7.07
2022-08-19T13:43:23.790Z,7.30
2022-08-19T13:45:56.972Z,6.50
2022-08-19T13:48:27.156Z,8.32
2022-08-19T13:50:54.987Z,6.10
2022-08-19T13:53:21.455Z,7.60
2022-08-19T13:55:48.123Z,7.22
2022-08-19T13:58:14.567Z,6.82
2022-08-19T14:00:44.130Z,7.05
2022-08-19T14:03:10.645Z,7.18
2022-08-19T14:05:37.247Z,6.05
2022-08-19T14:08:03.881Z,6.72
2022-08-19T14:10:31.709Z,6.68
2022-08-19T14:13:00.737Z,6.53
2022-08-19T14:15:27.944Z,7.22
2022-08-19T14:17:55.149Z,7.05
2022-08-19T14:20:22.361Z,6.93
2022-08-19T14:22:53.687Z,6.30
2022-08-19T14:25:24.498Z,5.82
2022-08-19T14:27:51.135Z,6.63
2022-08-19T14:30:27.673Z,6.55
2022-08-19T14:32:55.052Z,6.55
2022-08-19T14:35:22.812Z,6.45
2022-08-19T14:37:50.621Z,6.22
2022-08-19T14:40:21.514Z,6.00
2022-08-19T14:42:49.447Z,6.22
2022-08-19T14:45:15.908Z,5.93
2022-08-19T14:47:42.371Z,6.10
2022-08-19T14:50:18.355Z,5.90
2022-08-19T14:52:46.049Z,6.15
2022-08-19T14:55:12.496Z,6.32
2022-08-19T14:57:38.947Z,5.95
2022-08-19T15:00:06.213Z,7.55
2022-08-19T15:02:34.586Z,6.25
2022-08-19T15:05:02.831Z,6.18
2022-08-19T15:07:30.230Z,6.70
2022-08-19T15:09:57.096Z,6.57
2022-08-19T15:12:23.672Z,5.57
2022-08-19T15:14:55.876Z,5.03
2022-08-19T15:17:24.797Z,5.22
2022-08-19T15:20:10.828Z,5.50
2022-08-19T15:22:37.277Z,6.32
2022-08-19T15:25:05.145Z,5.63
2022-08-19T15:27:32.941Z,6.80
2022-08-19T15:30:01.500Z,5.68
2022-08-19T15:32:28.940Z,6.20
2022-08-19T15:34:55.396Z,5.45
2022-08-19T15:37:25.156Z,5.07
2022-08-19T15:39:51.744Z,4.60
2022-08-19T15:42:29.652Z,5.32
2022-08-19T15:44:56.820Z,5.18
2022-08-19T15:47:29.375Z,5.22
2022-08-19T15:50:14.510Z,5.43
2022-08-19T15:52:51.356Z,6.05
2022-08-19T15:55:33.286Z,4.65
2022-08-19T15:58:32.024Z,5.28
2022-08-19T16:01:20.461Z,5.07
2022-08-19T16:04:14.343Z,5.60
2022-08-19T16:06:47.829Z,5.13
2022-08-19T16:09:16.604Z,5.20
2022-08-19T16:11:46.306Z,4.82
2022-08-19T16:14:18.492Z,5.30
2022-08-19T16:16:48.795Z,5.13
2022-08-19T16:19:17.484Z,6.53
2022-08-19T16:21:47.222Z,8.13
2022-08-19T16:24:15.040Z,5.07
2022-08-19T16:26:42.471Z,5.05
2022-08-19T16:29:12.247Z,4.78
2022-08-19T16:31:41.431Z,4.60
2022-08-19T16:34:07.888Z,4.57
2022-08-19T16:36:34.452Z,4.68
2022-08-19T16:39:01.516Z,4.00
2022-08-19T16:41:28.851Z,4.95
2022-08-19T16:43:55.379Z,4.55
2022-08-19T16:46:22.638Z,5.45
2022-08-19T16:48:49.769Z,5.35
2022-08-19T16:51:16.371Z,4.10
2022-08-19T16:53:44.995Z,4.57
2022-08-19T16:56:12.178Z,6.28
2022-08-19T16:58:39.139Z,4.25
2022-08-19T17:01:08.581Z,5.28
2022-08-19T17:03:35.768Z,6.47
2022-08-19T17:06:15.985Z,6.47
2022-08-19T17:08:48.860Z,6.28
2022-08-19T17:11:18.628Z,5.72
2022-08-19T17:13:45.486Z,6.25
2022-08-19T17:16:15.335Z,7.28
2022-08-19T17:18:41.763Z,6.30
2022-08-19T17:21:08.242Z,5.95
2022-08-19T17:23:42.465Z,6.45
2022-08-19T17:26:16.821Z,6.53
2022-08-19T17:28:44.959Z,7.38
2022-08-19T17:31:11.525Z,6.28
2022-08-19T17:33:41.341Z,6.00
2022-08-19T17:36:08.406Z,7.72
2022-08-19T17:38:35.761Z,6.00
2022-08-19T17:41:05.908Z,6.25
2022-08-19T17:43:40.027Z,7.05
2022-08-19T17:46:11.003Z,6.03
2022-08-19T17:48:40.552Z,5.53
2022-08-19T17:51:14.677Z,6.35
2022-08-19T17:53:41.819Z,6.32
2022-08-19T17:56:08.711Z,5.93
2022-08-19T17:58:35.134Z,6.32
2022-08-19T18:01:02.756Z,6.40
2022-08-19T18:03:30.371Z,5.55
2022-08-19T18:05:57.170Z,5.82
2022-08-19T18:08:23.922Z,6.93
2022-08-19T18:10:50.889Z,6.60
2022-08-19T18:13:18.093Z,5.90
2022-08-19T18:15:44.736Z,5.82
2022-08-19T18:18:15.669Z,6.13
2022-08-19T18:20:42.596Z,5.78
2022-08-19T18:23:44.650Z,5.72
2022-08-19T18:25:55.746Z,6.68
2022-08-19T18:28:23.765Z,6.10
2022-08-19T18:30:50.219Z,5.72
2022-08-19T18:33:16.932Z,6.18
2022-08-19T18:35:46.143Z,6.25
2022-08-19T18:38:47.652Z,6.32
2022-08-19T18:41:36.126Z,6.38
2022-08-19T18:44:21.266Z,6.95
2022-08-19T18:47:06.313Z,6.55
2022-08-19T18:49:33.628Z,6.28
2022-08-19T18:52:03.131Z,7.07
2022-08-19T18:54:30.241Z,6.20
2022-08-19T18:56:56.760Z,7.22
2022-08-19T18:59:25.018Z,6.00
2022-08-19T19:01:52.925Z,6.57
2022-08-19T19:04:21.246Z,6.45
2022-08-19T19:06:47.967Z,7.63
2022-08-19T19:09:17.907Z,6.43
2022-08-19T19:11:48.174Z,7.50
2022-08-19T19:14:32.836Z,7.50
2022-08-19T19:17:06.945Z,6.50
2022-08-19T19:19:34.660Z,7.80
2022-08-19T19:22:03.053Z,7.30
2022-08-19T19:24:32.604Z,7.20
2022-08-19T19:27:05.906Z,6.13
2022-08-19T19:29:32.938Z,7.20
2022-08-19T19:31:59.381Z,7.47
2022-08-19T19:34:29.820Z,7.30
2022-08-19T19:36:56.870Z,7.57
2022-08-19T19:39:34.062Z,8.55
2022-08-19T19:42:12.555Z,7.25
2022-08-19T19:44:48.832Z,7.45
2022-08-19T19:47:17.433Z,7.18
2022-08-19T19:50:10.562Z,7.22
2022-08-19T19:52:31.551Z,7.22
2022-08-19T19:54:58.006Z,7.88
2022-08-19T19:57:26.510Z,8.70
2022-08-19T19:59:54.173Z,9.13
2022-08-19T20:02:22.074Z,8.25
2022-08-19T20:04:51.150Z,8.63
2022-08-19T20:07:17.672Z,9.65
2022-08-19T20:09:59.238Z,7.57
2022-08-19T20:12:26.705Z,7.82
2022-08-19T20:14:53.178Z,7.88
2022-08-19T20:17:20.681Z,7.68
2022-08-19T20:19:47.953Z,7.78
2022-08-19T20:22:14.670Z,6.95
2022-08-19T20:24:42.548Z,8.20
2022-08-19T20:27:10.641Z,9.68
2022-08-19T20:29:38.811Z,8.52
2022-08-19T20:32:08.589Z,8.60
2022-08-19T20:34:35.022Z,9.00
2022-08-19T20:37:01.456Z,8.63
2022-08-19T20:39:27.966Z,8.82
2022-08-19T20:41:56.224Z,8.80
2022-08-19T20:44:24.070Z,7.43
2022-08-19T20:46:54.633Z,7.82
2022-08-19T20:49:22.180Z,7.93
2022-08-19T20:51:48.884Z,8.25
2022-08-19T20:54:15.375Z,8.20
2022-08-19T20:56:41.809Z,8.63
2022-08-19T20:59:10.456Z,8.77
2022-08-19T21:01:37.499Z,8.10
2022-08-19T21:04:04.108Z,8.63
2022-08-19T21:06:30.998Z,8.25
2022-08-19T21:08:58.730Z,8.70
2022-08-19T21:11:25.274Z,9.18
2022-08-19T21:13:51.605Z,8.93
2022-08-19T21:16:18.044Z,9.60
2022-08-19T21:18:44.592Z,8.50
2022-08-19T21:21:11.159Z,8.75
2022-08-19T21:23:37.590Z,9.00
2022-08-19T21:26:04.047Z,10.80
2022-08-19T21:28:36.112Z,9.15
2022-08-19T21:31:05.273Z,9.50
2022-08-19T21:33:32.255Z,8.88
2022-08-19T21:36:00.022Z,8.68
2022-08-19T21:38:27.288Z,10.15
2022-08-19T21:40:54.118Z,10.65
2022-08-19T21:43:20.657Z,10.77
2022-08-19T21:45:47.660Z,9.70
2022-08-19T21:48:14.734Z,10.27
2022-08-19T21:50:42.343Z,10.15
2022-08-19T21:53:08.914Z,10.02
2022-08-19T21:55:38.924Z,9.93
2022-08-19T21:58:05.376Z,10.27
2022-08-19T22:00:33.987Z,9.73
2022-08-19T22:03:01.286Z,8.90
2022-08-19T22:05:28.142Z,9.48
2022-08-19T22:07:59.789Z,10.35
2022-08-19T22:10:31.856Z,10.23
2022-08-19T22:12:58.911Z,10.13
2022-08-19T22:15:29.110Z,9.32
2022-08-19T22:17:56.978Z,11.50
2022-08-19T22:20:26.783Z,11.30
2022-08-19T22:22:59.479Z,10.32
2022-08-19T22:25:31.717Z,11.77
2022-08-19T22:28:01.841Z,11.10
2022-08-19T22:30:32.363Z,14.05
2022-08-19T22:33:03.656Z,12.43
2022-08-19T22:35:31.881Z,11.13
2022-08-19T22:37:59.327Z,11.65
2022-08-19T22:40:27.500Z,12.15
2022-08-19T22:43:29.930Z,10.10
2022-08-19T22:45:57.139Z,10.60
2022-08-19T22:48:25.877Z,10.43
2022-08-19T22:51:12.069Z,12.35
2022-08-19T22:53:42.069Z,11.48
2022-08-19T22:56:13.157Z,12.77
2022-08-19T22:58:42.301Z,12.57
2022-08-19T23:01:11.147Z,11.85
2022-08-19T23:03:41.787Z,12.60
2022-08-19T23:06:08.327Z,13.10
2022-08-19T23:08:39.634Z,12.18
2022-08-19T23:11:06.210Z,13.85
2022-08-19T23:13:33.073Z,12.45
2022-08-19T23:15:59.497Z,11.95
2022-08-19T23:18:26.373Z,12.98
2022-08-19T23:20:54.425Z,12.65
2022-08-19T23:23:24.669Z,12.23
2022-08-19T23:25:55.398Z,13.38
2022-08-19T23:28:41.510Z,12.80
2022-08-19T23:31:09.048Z,12.13
2022-08-19T23:33:50.925Z,14.23
2022-08-19T23:36:18.245Z,13.75
2022-08-19T23:38:46.801Z,13.88
2022-08-19T23:41:15.032Z,14.32
2022-08-19T23:43:42.909Z,14.93
2022-08-19T23:46:11.564Z,15.88
2022-08-19T23:48:38.337Z,13.98
2022-08-19T23:51:07.705Z,14.80
2022-08-19T23:53:34.353Z,12.60
2022-08-19T23:56:00.794Z,12.93
2022-08-19T23:58:27.769Z,13.93
